NY Mills, New York
Current Conditions -  °F | °C
As of 3:53 AM on Monday 24 Nov 2014 (Local Time) from KRME Reporting Station
Light Rain Light Rain  
Wind Chill: 37°   Ceiling: 9000
Heat Index: 44°   Visibility: 10mi
Dew Point: 41°   Wind: 14mph
Humidity: 89%   Direction: 110°ESE
Pressure: 29.62"   Gusts: NA
Location:  43.0994°N, 75.2931°W
Report Text: KRME 240853Z AUTO 11012KT 10SM -RA FEW026 BKN090 OVC110 07/05 A2962 RMK AO2 PRESFR SLP031 P0003 60004 T00670050 58064
Loading
Personal Weather Stations






























Interactive Weather Map New forecast layout! Learn more

10-Day Weather Forecast

Advertisements
Track Severe Weather on mobile